Time;durP1;ratioP1;P1;durP2;ratioP2;P2;SDS_P1;SDS_P2;PMS_P1;PMS_P2;Temp;Humidity;BMP_temperature;BMP_pressure;BME280_temperature;BME280_humidity;BME280_pressure;Samples;Min_cycle;Max_cycle;Signal;HPM_P1;HPM_P2
2021/06/05 00:00:52;;;;;;;0.10;0.10;;;19.50;94.80;;;;;;6271313;22;20004;-80
2021/06/05 00:03:20;;;;;;;0.00;0.00;;;19.40;95.00;;;;;;6273084;22;20011;-80
2021/06/05 00:05:59;;;;;;;0.10;0.10;;;19.40;95.10;;;;;;6272115;22;20150;-80
2021/06/05 00:08:29;;;;;;;0.10;0.10;;;19.40;95.40;;;;;;6271693;22;20011;-80
2021/06/05 00:11:00;;;;;;;0.10;0.10;;;19.40;95.50;;;;;;6273996;22;20308;-79
2021/06/05 00:13:55;;;;;;;0.10;0.10;;;19.40;95.60;;;;;;6271805;22;20012;-81
2021/06/05 00:16:25;;;;;;;0.00;0.00;;;19.30;95.50;;;;;;6273429;22;20008;-80
2021/06/05 00:18:52;;;;;;;0.00;0.00;;;19.30;95.30;;;;;;6271509;22;20008;-80
2021/06/05 00:21:21;;;;;;;0.10;0.10;;;19.30;95.30;;;;;;6273810;22;20096;-80
2021/06/05 00:23:48;;;;;;;0.20;0.20;;;19.20;95.20;;;;;;6271691;22;20010;-80
2021/06/05 00:26:15;;;;;;;0.10;0.10;;;19.20;95.20;;;;;;6273615;22;20007;-80
2021/06/05 00:28:43;;;;;;;0.10;0.10;;;19.20;95.60;;;;;;6274738;22;20470;-80
2021/06/05 00:31:09;;;;;;;0.10;0.10;;;19.10;95.50;;;;;;6247985;22;20030;-80
2021/06/05 00:33:35;;;;;;;0.10;0.10;;;19.10;95.50;;;;;;6274874;22;20098;-79
2021/06/05 00:36:05;;;;;;;0.10;0.10;;;19.00;95.60;;;;;;6274825;22;20000;-80
2021/06/05 00:38:31;;;;;;;0.10;0.10;;;19.00;95.90;;;;;;6274923;22;20094;-80
2021/06/05 00:40:59;;;;;;;0.10;0.10;;;19.00;96.00;;;;;;6272968;22;20011;-79
2021/06/05 00:43:31;;;;;;;0.00;0.00;;;19.00;96.10;;;;;;6274962;22;20039;-80
2021/06/05 00:45:59;;;;;;;0.10;0.10;;;19.00;95.90;;;;;;6275211;22;20000;-80
2021/06/05 00:48:26;;;;;;;0.10;0.10;;;19.00;96.20;;;;;;6273271;22;20007;-80
2021/06/05 00:50:53;;;;;;;0.10;0.10;;;19.00;96.10;;;;;;6273633;22;20014;-80
2021/06/05 00:53:24;;;;;;;0.10;0.10;;;19.10;95.80;;;;;;6274721;22;20083;-80
2021/06/05 00:55:52;;;;;;;0.03;0.03;;;19.00;95.70;;;;;;6275585;22;20033;-79
2021/06/05 00:58:21;;;;;;;0.10;0.10;;;19.00;95.70;;;;;;6274930;22;20004;-79
2021/06/05 01:00:54;;;;;;;0.38;0.38;;;19.00;95.80;;;;;;6275178;22;19996;-80
2021/06/05 01:03:25;;;;;;;0.10;0.10;;;19.00;96.30;;;;;;6273038;22;20339;-80
2021/06/05 01:06:15;;;;;;;0.10;0.10;;;18.90;96.60;;;;;;6273610;22;20081;-81
2021/06/05 01:09:00;;;;;;;0.10;0.10;;;18.90;96.70;;;;;;6268620;22;20035;-80
2021/06/05 01:11:50;;;;;;;0.10;0.10;;;18.90;96.80;;;;;;6274028;22;20055;-80
2021/06/05 01:14:22;;;;;;;0.10;0.10;;;18.90;97.10;;;;;;6274133;22;20000;-79
2021/06/05 01:16:50;;;;;;;0.10;0.10;;;18.80;97.60;;;;;;6273943;22;20007;-80
2021/06/05 01:19:58;;;;;;;0.10;0.10;;;18.80;97.40;;;;;;6272619;22;20011;-80
2021/06/05 01:22:34;;;;;;;0.00;0.00;;;18.90;97.70;;;;;;6274325;22;19999;-80
2021/06/05 01:25:26;;;;;;;0.10;0.10;;;18.80;97.90;;;;;;6273878;22;20030;-80
2021/06/05 01:28:11;;;;;;;0.10;0.10;;;18.80;97.90;;;;;;6273668;22;19995;-80
2021/06/05 01:30:46;;;;;;;0.10;0.10;;;18.80;97.90;;;;;;6273262;22;20008;-79
2021/06/05 01:33:17;;;;;;;4.68;2.50;;;18.80;97.90;;;;;;6273722;22;20062;-81
2021/06/05 01:35:44;;;;;;;0.10;0.10;;;18.80;97.90;;;;;;6274856;22;20025;-80
2021/06/05 01:38:14;;;;;;;0.10;0.10;;;18.80;98.00;;;;;;6271534;22;20007;-80
2021/06/05 01:40:43;;;;;;;0.10;0.10;;;18.80;98.10;;;;;;6274203;22;20011;-80
2021/06/05 01:43:10;;;;;;;0.10;0.10;;;18.80;98.10;;;;;;6274444;22;20512;-81
2021/06/05 01:45:40;;;;;;;0.10;0.10;;;18.80;97.70;;;;;;6274461;22;20000;-80
2021/06/05 01:48:09;;;;;;;0.10;0.10;;;18.80;97.70;;;;;;6272807;22;20096;-80
2021/06/05 01:50:41;;;;;;;0.10;0.10;;;18.80;97.70;;;;;;6272571;22;20057;-80
2021/06/05 01:53:25;;;;;;;1.02;1.02;;;18.80;97.40;;;;;;6273570;22;20011;-81
2021/06/05 01:56:04;;;;;;;0.10;0.10;;;18.80;96.80;;;;;;6247482;22;20167;-81
2021/06/05 01:58:32;;;;;;;0.10;0.10;;;18.90;96.80;;;;;;6273857;22;20004;-81
2021/06/05 02:01:01;;;;;;;0.10;0.10;;;18.90;96.70;;;;;;6274529;22;20000;-80
2021/06/05 02:03:28;;;;;;;0.10;0.10;;;18.90;97.00;;;;;;6272626;22;19999;-80
2021/06/05 02:05:54;;;;;;;;;;;18.90;96.70;;;;;;6273760;22;20008;-80
2021/06/05 02:08:30;;;;;;;0.00;0.00;;;19.00;96.70;;;;;;6272213;22;19982;-81
2021/06/05 02:11:07;;;;;;;0.10;0.10;;;19.00;97.10;;;;;;6274100;22;20000;-80
2021/06/05 02:13:40;;;;;;;0.10;0.10;;;19.00;96.90;;;;;;6273825;22;20342;-80
2021/06/05 02:16:20;;;;;;;0.75;0.75;;;19.00;97.00;;;;;;6274165;22;20434;-81
2021/06/05 02:18:56;;;;;;;0.65;0.65;;;19.10;97.10;;;;;;6272391;22;20008;-81
2021/06/05 02:21:32;;;;;;;0.10;0.10;;;19.10;97.30;;;;;;6273410;22;20338;-81
2021/06/05 02:24:06;;;;;;;0.10;0.10;;;19.10;97.00;;;;;;6273990;22;19996;-81
2021/06/05 02:26:37;;;;;;;0.10;0.10;;;19.20;97.00;;;;;;6274453;22;20003;-80
2021/06/05 02:29:07;;;;;;;0.10;0.10;;;19.10;97.20;;;;;;6247391;22;20035;-80
2021/06/05 02:31:34;;;;;;;0.10;0.10;;;19.10;97.40;;;;;;6273498;22;20022;-81
2021/06/05 02:34:03;;;;;;;0.10;0.10;;;19.10;97.50;;;;;;6272890;22;20071;-81
2021/06/05 02:36:30;;;;;;;0.10;0.10;;;19.10;97.30;;;;;;6274340;22;20010;-81
2021/06/05 02:38:57;;;;;;;0.10;0.10;;;19.10;97.50;;;;;;6272087;22;20443;-81
2021/06/05 02:41:24;;;;;;;0.10;0.10;;;19.10;97.60;;;;;;6272420;22;20030;-81
2021/06/05 02:43:55;;;;;;;0.10;0.10;;;19.10;97.20;;;;;;6273448;22;20374;-81
2021/06/05 02:46:34;;;;;;;0.10;0.10;;;19.20;97.30;;;;;;6272782;22;20004;-81
2021/06/05 02:49:06;;;;;;;0.10;0.10;;;19.20;97.10;;;;;;6273660;22;20003;-82
2021/06/05 02:51:39;;;;;;;0.20;0.20;;;19.20;97.50;;;;;;6271993;22;20008;-82
2021/06/05 02:54:06;;;;;;;0.10;0.10;;;19.20;97.30;;;;;;6272055;22;20335;-81
2021/06/05 02:56:33;;;;;;;0.10;0.10;;;19.20;97.10;;;;;;6273174;22;20010;-81
2021/06/05 02:59:00;;;;;;;0.10;0.10;;;19.20;97.30;;;;;;6273548;22;19999;-82
2021/06/05 03:01:26;;;;;;;0.00;0.00;;;19.30;96.80;;;;;;6273831;22;20004;-82
2021/06/05 03:03:57;;;;;;;0.10;0.10;;;19.30;96.80;;;;;;6273623;22;20030;-81
2021/06/05 03:06:23;;;;;;;0.10;0.10;;;19.40;97.30;;;;;;6274237;22;20010;-82
2021/06/05 03:08:49;;;;;;;0.10;0.10;;;19.40;97.70;;;;;;6271886;22;20007;-81
2021/06/05 03:11:19;;;;;;;0.10;0.10;;;19.40;97.60;;;;;;6273841;22;20007;-81
2021/06/05 03:13:49;;;;;;;0.10;0.10;;;19.40;97.30;;;;;;6270513;22;20565;-81
2021/06/05 03:16:16;;;;;;;0.10;0.10;;;19.40;97.10;;;;;;6274144;22;20034;-80
2021/06/05 03:18:44;;;;;;;0.10;0.10;;;19.40;97.10;;;;;;6271907;22;20506;-81
2021/06/05 03:21:18;;;;;;;0.10;0.10;;;19.30;97.10;;;;;;6273965;22;20000;-81
2021/06/05 03:23:46;;;;;;;0.10;0.10;;;19.40;97.20;;;;;;6273247;22;20145;-80
2021/06/05 03:26:15;;;;;;;0.00;0.00;;;19.30;96.80;;;;;;6273796;22;20026;-81
2021/06/05 03:28:43;;;;;;;0.10;0.10;;;19.30;97.00;;;;;;6271721;22;20007;-81
2021/06/05 03:31:11;;;;;;;0.10;0.10;;;19.20;96.90;;;;;;6273568;22;20545;-81
2021/06/05 03:33:37;;;;;;;0.10;0.10;;;19.20;97.00;;;;;;6273248;22;20007;-82
2021/06/05 03:36:05;;;;;;;0.10;0.10;;;19.10;96.90;;;;;;6272338;22;20077;-84
2021/06/05 03:38:31;;;;;;;;;;;19.20;97.00;;;;;;6272314;22;20065;-83
2021/06/05 03:40:57;;;;;;;0.10;0.10;;;19.20;97.10;;;;;;6273685;22;19899;-82
2021/06/05 03:43:24;;;;;;;0.10;0.10;;;19.10;97.10;;;;;;6271762;22;20010;-83
2021/06/05 03:45:51;;;;;;;0.10;0.10;;;19.10;97.20;;;;;;6272155;22;20004;-82
2021/06/05 03:48:17;;;;;;;;;;;19.10;97.30;;;;;;6272187;22;20010;-82
2021/06/05 03:50:49;;;;;;;1.38;1.27;;;19.10;97.20;;;;;;6273663;22;20281;-82
2021/06/05 03:53:17;;;;;;;0.17;0.17;;;19.10;96.90;;;;;;6272125;22;20461;-83
2021/06/05 03:55:44;;;;;;;0.10;0.10;;;19.10;96.80;;;;;;6272384;22;20553;-82
2021/06/05 03:58:12;;;;;;;0.10;0.10;;;19.10;97.20;;;;;;6271849;22;20012;-84
2021/06/05 04:00:41;;;;;;;0.20;0.20;;;19.20;97.30;;;;;;6272041;22;20000;-83
2021/06/05 04:03:14;;;;;;;0.00;0.00;;;19.10;97.10;;;;;;6274791;22;20012;-82
2021/06/05 04:05:40;;;;;;;0.10;0.10;;;19.10;97.40;;;;;;6274717;22;20003;-84
2021/06/05 04:08:10;;;;;;;0.10;0.10;;;19.20;97.30;;;;;;6275708;22;20004;-83
2021/06/05 04:10:37;;;;;;;0.10;0.10;;;19.20;97.50;;;;;;6275712;22;20054;-84
2021/06/05 04:13:04;;;;;;;0.10;0.10;;;19.20;97.30;;;;;;6274350;22;20025;-83
2021/06/05 04:15:32;;;;;;;0.10;0.10;;;19.20;97.30;;;;;;6275945;22;20187;-85
2021/06/05 04:18:02;;;;;;;0.10;0.10;;;19.20;97.40;;;;;;6275224;22;20004;-83
2021/06/05 04:20:28;;;;;;;0.10;0.10;;;19.20;97.60;;;;;;6275281;22;20004;-84
2021/06/05 04:22:54;;;;;;;0.10;0.10;;;19.10;98.00;;;;;;6274752;22;20008;-83
2021/06/05 04:25:20;;;;;;;0.20;0.20;;;19.10;98.00;;;;;;6274839;22;20081;-84
2021/06/05 04:27:48;;;;;;;0.05;0.05;;;19.10;97.80;;;;;;6276615;22;20031;-86
2021/06/05 04:30:16;;;;;;;;;;;19.20;98.20;;;;;;6275169;22;20042;-84
2021/06/05 04:32:41;;;;;;;0.35;0.32;;;19.20;98.70;;;;;;6276007;22;19953;-84
2021/06/05 04:35:07;;;;;;;0.10;0.10;;;19.30;98.40;;;;;;6275292;22;20000;-85
2021/06/05 04:37:33;;;;;;;0.10;0.10;;;19.30;98.90;;;;;;6274504;22;20075;-84
2021/06/05 04:39:59;;;;;;;0.10;0.10;;;19.30;98.50;;;;;;6276653;22;20023;-85
2021/06/05 04:42:25;;;;;;;0.00;0.00;;;19.30;98.90;;;;;;6276187;22;20129;-84
2021/06/05 04:44:51;;;;;;;0.10;0.10;;;19.40;98.60;;;;;;6275132;22;20003;-85
2021/06/05 04:47:17;;;;;;;0.10;0.10;;;19.50;98.60;;;;;;6274942;22;20007;-85
2021/06/05 04:49:42;;;;;;;0.10;0.10;;;19.50;98.80;;;;;;6275279;22;20326;-85
2021/06/05 04:52:08;;;;;;;0.10;0.10;;;19.60;99.00;;;;;;6277040;22;20031;-87
2021/06/05 04:54:34;;;;;;;0.10;0.10;;;19.70;98.80;;;;;;6276266;22;20011;-85
2021/06/05 04:57:00;;;;;;;0.10;0.10;;;19.70;98.50;;;;;;6274327;22;20560;-81
2021/06/05 04:59:25;;;;;;;0.10;0.10;;;19.80;98.90;;;;;;6275436;22;20003;-84
2021/06/05 05:01:51;;;;;;;0.10;0.10;;;19.80;98.80;;;;;;6276484;22;20430;-83
2021/06/05 05:04:18;;;;;;;0.10;0.10;;;19.90;99.10;;;;;;6274647;22;20435;-84
2021/06/05 05:06:44;;;;;;;0.10;0.10;;;19.90;99.00;;;;;;6276420;22;20078;-85
2021/06/05 05:09:12;;;;;;;0.10;0.10;;;19.90;98.70;;;;;;6275527;22;20003;-84
2021/06/05 05:11:38;;;;;;;0.08;0.08;;;20.00;98.90;;;;;;6275229;22;20000;-83
2021/06/05 05:14:05;;;;;;;0.10;0.10;;;20.00;99.00;;;;;;6275229;22;20134;-83
2021/06/05 05:16:31;;;;;;;0.10;0.10;;;20.10;98.70;;;;;;6273524;22;20502;-83
2021/06/05 05:18:58;;;;;;;0.10;0.10;;;20.20;98.20;;;;;;6274917;22;20006;-83
2021/06/05 05:21:24;;;;;;;1.45;1.35;;;20.20;98.20;;;;;;6274307;22;20018;-83
2021/06/05 05:23:50;;;;;;;0.10;0.10;;;20.20;98.20;;;;;;6272696;22;20008;-83
2021/06/05 05:26:17;;;;;;;0.10;0.10;;;20.30;98.50;;;;;;6273975;22;19999;-82
2021/06/05 05:28:43;;;;;;;0.10;0.10;;;20.30;98.60;;;;;;6274142;22;20008;-84
2021/06/05 05:31:13;;;;;;;0.10;0.10;;;20.40;98.80;;;;;;6274714;22;20410;-83
2021/06/05 05:33:39;;;;;;;0.10;0.10;;;20.40;98.40;;;;;;6274447;22;20094;-84
2021/06/05 05:36:22;;;;;;;0.10;0.10;;;20.50;98.20;;;;;;6275106;22;20023;-83
2021/06/05 05:38:49;;;;;;;0.10;0.10;;;20.60;98.10;;;;;;6274644;22;19996;-84
2021/06/05 05:41:18;;;;;;;0.10;0.10;;;20.60;98.30;;;;;;6275105;22;20007;-85
2021/06/05 05:43:44;;;;;;;1.30;1.20;;;20.60;98.10;;;;;;6273992;22;20276;-84
2021/06/05 05:46:10;;;;;;;0.10;0.10;;;20.70;97.80;;;;;;6276158;22;20007;-83
2021/06/05 05:48:38;;;;;;;0.80;0.80;;;20.70;98.10;;;;;;6273197;22;20004;-83
2021/06/05 05:51:06;;;;;;;0.10;0.10;;;20.80;98.10;;;;;;6274868;22;20000;-83
2021/06/05 05:53:32;;;;;;;0.10;0.10;;;20.80;97.70;;;;;;6274315;22;20011;-84
2021/06/05 05:55:58;;;;;;;0.10;0.10;;;20.90;98.00;;;;;;6274818;22;20023;-83
2021/06/05 05:58:25;;;;;;;0.10;0.10;;;20.90;98.40;;;;;;6272953;22;20083;-82
2021/06/05 06:00:52;;;;;;;0.10;0.10;;;21.00;98.00;;;;;;6273219;22;20033;-82
2021/06/05 06:03:19;;;;;;;0.10;0.10;;;21.10;98.10;;;;;;6274532;22;20039;-84
2021/06/05 06:05:45;;;;;;;0.10;0.10;;;21.10;97.80;;;;;;6275743;22;20035;-85
2021/06/05 06:08:14;;;;;;;0.10;0.10;;;21.20;97.90;;;;;;6274162;22;20007;-85
2021/06/05 06:10:40;;;;;;;0.10;0.10;;;21.20;98.20;;;;;;6275222;22;20323;-85
2021/06/05 06:13:06;;;;;;;0.10;0.10;;;21.20;97.80;;;;;;6275143;22;20099;-85
2021/06/05 06:15:33;;;;;;;0.10;0.10;;;21.30;97.70;;;;;;6274085;22;20000;-87
2021/06/05 06:17:59;;;;;;;0.10;0.10;;;21.40;97.10;;;;;;6275359;22;20391;-87
2021/06/05 06:20:31;;;;;;;0.10;0.10;;;21.40;97.80;;;;;;6275627;22;20545;-86
2021/06/05 06:23:00;;;;;;;0.10;0.10;;;21.50;97.80;;;;;;6275585;22;20004;-87
2021/06/05 06:25:28;;;;;;;2.65;1.38;;;21.50;97.30;;;;;;6274287;22;20423;-84
2021/06/05 06:27:54;;;;;;;1.85;1.75;;;21.60;97.50;;;;;;6273878;22;20003;-87
2021/06/05 06:30:30;;;;;;;0.10;0.10;;;21.60;97.40;;;;;;6275417;22;20460;-86
2021/06/05 06:32:56;;;;;;;0.10;0.10;;;21.70;96.30;;;;;;6273664;22;20101;-84
2021/06/05 06:35:24;;;;;;;0.10;0.10;;;21.80;96.40;;;;;;6275679;22;20026;-89
2021/06/05 06:37:51;;;;;;;0.10;0.10;;;22.00;95.40;;;;;;6273661;22;20474;-85
2021/06/05 06:40:16;;;;;;;;;;;22.10;94.20;;;;;;6274010;22;20017;-82
2021/06/05 06:42:42;;;;;;;7.90;1.40;;;22.10;94.90;;;;;;6274084;22;19930;-84
2021/06/05 06:45:10;;;;;;;0.10;0.10;;;22.20;93.70;;;;;;6274317;22;20004;-84
2021/06/05 06:47:37;;;;;;;0.10;0.10;;;22.30;93.50;;;;;;6273706;22;20007;-83
2021/06/05 06:50:05;;;;;;;0.10;0.10;;;22.30;92.90;;;;;;6274409;22;20053;-83
2021/06/05 06:52:30;;;;;;;0.10;0.10;;;22.30;93.70;;;;;;6273587;22;20030;-83
2021/06/05 06:54:56;;;;;;;0.10;0.10;;;22.30;92.50;;;;;;6274170;22;20423;-82
2021/06/05 06:57:22;;;;;;;0.10;0.10;;;22.40;91.70;;;;;;6272650;22;20003;-82
2021/06/05 06:59:48;;;;;;;11.73;7.53;;;22.50;89.30;;;;;;6274321;22;20000;-84
2021/06/05 07:02:14;;;;;;;0.35;0.35;;;22.80;85.40;;;;;;6272089;22;20007;-84
2021/06/05 07:04:40;;;;;;;0.13;0.13;;;23.00;87.50;;;;;;6274328;22;20000;-83
2021/06/05 07:07:08;;;;;;;5.93;1.10;;;23.10;86.80;;;;;;6272312;22;20030;-86
2021/06/05 07:09:34;;;;;;;0.90;0.90;;;23.20;83.70;;;;;;6274849;22;20004;-83
2021/06/05 07:12:00;;;;;;;0.20;0.20;;;23.30;84.40;;;;;;6272737;22;20007;-86
2021/06/05 07:14:27;;;;;;;0.25;0.25;;;23.40;88.80;;;;;;6273118;22;20341;-83
2021/06/05 07:16:53;;;;;;;;;;;23.50;86.80;;;;;;6273608;22;20003;-84
2021/06/05 07:19:22;;;;;;;2.10;1.90;;;23.60;81.90;;;;;;6274436;22;20208;-84
2021/06/05 07:21:48;;;;;;;1.92;0.95;;;23.60;81.20;;;;;;6274257;22;20006;-82
2021/06/05 07:24:14;;;;;;;5.40;1.30;;;23.50;80.60;;;;;;6271498;22;20008;-86
2021/06/05 07:26:41;;;;;;;1.03;0.83;;;23.40;81.20;;;;;;6271008;22;20071;-85
2021/06/05 07:29:11;;;;;;;2.67;2.10;;;23.50;81.80;;;;;;6271959;22;20003;-84
2021/06/05 07:31:40;;;;;;;2.30;1.45;;;23.50;81.20;;;;;;6273784;22;20016;-86
2021/06/05 07:34:06;;;;;;;1.60;0.95;;;23.50;78.50;;;;;;6272012;22;20012;-84
2021/06/05 07:36:43;;;;;;;0.45;0.45;;;23.40;75.30;;;;;;6272072;22;20018;-83
2021/06/05 07:39:13;;;;;;;1.67;1.17;;;23.50;81.00;;;;;;6272444;22;20035;-85
2021/06/05 07:41:41;;;;;;;2.17;1.42;;;23.50;79.30;;;;;;6272276;22;20000;-85
2021/06/05 07:44:08;;;;;;;0.20;0.20;;;23.50;77.30;;;;;;6271852;22;20008;-81
2021/06/05 07:46:39;;;;;;;2.78;1.65;;;23.50;79.70;;;;;;6273911;22;20007;-84
2021/06/05 07:49:05;;;;;;;0.63;0.63;;;23.60;80.00;;;;;;6270768;22;20419;-83
2021/06/05 07:51:31;;;;;;;0.38;0.38;;;23.50;74.90;;;;;;6274285;22;20084;-82
2021/06/05 07:53:56;;;;;;;0.30;0.30;;;23.50;75.50;;;;;;6272125;22;20008;-82
2021/06/05 07:56:22;;;;;;;3.22;1.15;;;23.50;75.00;;;;;;6272434;22;20030;-83
2021/06/05 07:58:48;;;;;;;2.05;1.08;;;23.60;74.60;;;;;;6273861;22;20000;-83
2021/06/05 08:01:14;;;;;;;1.77;1.00;;;23.60;76.50;;;;;;6273778;22;20437;-82
2021/06/05 08:03:39;;;;;;;5.88;3.30;;;23.70;76.50;;;;;;6274010;22;19996;-85
2021/06/05 08:06:05;;;;;;;4.38;0.82;;;23.70;75.80;;;;;;6274450;22;20014;-84
2021/06/05 08:08:31;;;;;;;1.90;1.45;;;23.70;74.70;;;;;;6274243;22;20071;-85
2021/06/05 08:10:57;;;;;;;1.92;1.10;;;23.70;73.60;;;;;;6272838;22;20010;-83
2021/06/05 08:13:23;;;;;;;6.68;1.20;;;23.70;74.90;;;;;;6271784;22;20407;-85
2021/06/05 08:15:50;;;;;;;3.72;1.48;;;23.60;74.00;;;;;;6269534;22;20003;-84
2021/06/05 08:18:16;;;;;;;6.60;1.35;;;23.60;71.70;;;;;;6270628;22;20004;-84
2021/06/05 08:20:43;;;;;;;0.73;0.63;;;23.60;74.00;;;;;;6269501;22;20034;-84
2021/06/05 08:23:11;;;;;;;1.25;0.77;;;23.60;71.10;;;;;;6270290;22;20435;-84
2021/06/05 08:25:37;;;;;;;0.35;0.35;;;23.70;73.20;;;;;;6270747;22;20006;-83
2021/06/05 08:28:04;;;;;;;1.60;0.70;;;23.70;74.20;;;;;;6269271;22;20011;-84
2021/06/05 08:30:50;;;;;;;1.20;1.00;;;23.80;72.90;;;;;;6271322;22;20501;-84
2021/06/05 08:33:17;;;;;;;0.75;0.68;;;23.80;71.10;;;;;;6269967;22;20454;-82
2021/06/05 08:35:43;;;;;;;1.60;1.42;;;23.90;72.30;;;;;;6269951;22;19999;-85
2021/06/05 08:38:11;;;;;;;3.88;1.02;;;23.90;71.00;;;;;;6268069;22;20344;-83
2021/06/05 08:40:43;;;;;;;0.17;0.17;;;23.90;72.50;;;;;;6271383;22;20008;-85
2021/06/05 08:43:11;;;;;;;2.30;0.80;;;23.90;71.50;;;;;;6270274;22;20004;-84
2021/06/05 08:45:37;;;;;;;0.75;0.63;;;24.00;72.00;;;;;;6271246;22;20304;-83
2021/06/05 08:48:09;;;;;;;0.55;0.55;;;24.00;73.40;;;;;;6269440;22;20557;-85
2021/06/05 08:50:35;;;;;;;0.50;0.50;;;24.00;72.90;;;;;;6273095;22;20004;-85
2021/06/05 08:53:23;;;;;;;0.73;0.73;;;23.90;72.90;;;;;;6271163;22;20022;-84
2021/06/05 08:56:00;;;;;;;0.40;0.40;;;23.90;74.40;;;;;;6273249;22;20023;-83
2021/06/05 08:58:35;;;;;;;1.15;1.05;;;23.90;75.10;;;;;;6272840;22;20007;-81
2021/06/05 09:01:03;;;;;;;0.93;0.82;;;24.00;73.40;;;;;;6274290;22;20000;-82
2021/06/05 09:03:31;;;;;;;2.10;1.48;;;24.00;74.00;;;;;;6275203;22;19995;-84
2021/06/05 09:06:04;;;;;;;0.63;0.57;;;23.70;74.10;;;;;;6275858;22;20083;-82
2021/06/05 09:08:31;;;;;;;1.15;1.05;;;23.70;75.50;;;;;;6272467;22;20029;-82
2021/06/05 09:11:04;;;;;;;0.70;0.63;;;23.80;78.50;;;;;;6272406;22;20019;-82
2021/06/05 09:13:30;;;;;;;0.80;0.80;;;23.80;76.10;;;;;;6272883;22;20019;-83
2021/06/05 09:16:21;;;;;;;1.05;0.90;;;23.80;76.50;;;;;;6275059;22;20078;-85
2021/06/05 09:19:01;;;;;;;2.53;1.80;;;23.80;76.10;;;;;;6274831;22;20058;-84
2021/06/05 09:21:38;;;;;;;3.75;1.77;;;24.00;77.80;;;;;;6274856;22;20051;-83
2021/06/05 09:24:26;;;;;;;1.25;1.17;;;23.90;78.80;;;;;;6274603;22;20079;-84
2021/06/05 09:27:06;;;;;;;0.20;0.20;;;23.80;78.50;;;;;;6274758;22;20026;-83
2021/06/05 09:30:05;;;;;;;0.80;0.73;;;23.70;79.90;;;;;;6275060;22;19998;-84
2021/06/05 09:32:33;;;;;;;28.20;1.90;;;23.80;78.90;;;;;;6235618;22;20022;-83
2021/06/05 09:35:10;;;;;;;3.58;1.40;;;23.80;80.80;;;;;;6275311;22;20010;-84
2021/06/05 09:37:39;;;;;;;1.80;1.30;;;23.80;81.20;;;;;;6274655;22;20003;-83
2021/06/05 09:40:17;;;;;;;0.73;0.73;;;23.80;82.70;;;;;;6273577;22;20027;-84
2021/06/05 09:42:55;;;;;;;1.23;1.13;;;23.90;82.80;;;;;;6274860;22;20003;-84
2021/06/05 09:45:32;;;;;;;1.38;1.20;;;23.90;81.50;;;;;;6269728;22;20000;-83
2021/06/05 09:48:17;;;;;;;2.40;0.90;;;23.80;80.60;;;;;;6274756;22;20098;-84
2021/06/05 09:50:45;;;;;;;1.65;1.30;;;23.70;82.50;;;;;;6274777;22;20078;-83
2021/06/05 09:53:30;;;;;;;1.90;1.17;;;23.70;81.60;;;;;;6274164;22;20016;-83
2021/06/05 09:55:58;;;;;;;2.42;1.95;;;23.90;82.60;;;;;;6272712;22;20014;-84
2021/06/05 09:58:41;;;;;;;2.08;1.67;;;23.90;80.70;;;;;;6272662;22;20090;-83
2021/06/05 10:01:25;;;;;;;1.58;0.73;;;24.00;82.80;;;;;;6272615;22;19996;-83
2021/06/05 10:04:07;;;;;;;0.17;0.17;;;24.30;84.50;;;;;;6274341;22;20335;-81
2021/06/05 10:06:38;;;;;;;3.90;2.17;;;24.50;82.20;;;;;;6273206;22;20012;-83
2021/06/05 10:09:27;;;;;;;0.80;0.68;;;24.60;79.50;;;;;;6274170;22;20002;-85
2021/06/05 10:12:06;;;;;;;0.20;0.20;;;24.50;78.80;;;;;;6274004;22;20003;-82
2021/06/05 10:14:38;;;;;;;2.13;1.45;;;24.60;78.40;;;;;;6272987;22;20030;-84
2021/06/05 10:17:34;;;;;;;5.13;0.82;;;24.60;79.60;;;;;;6272441;22;20004;-82
2021/06/05 10:20:03;;;;;;;1.60;1.20;;;24.60;78.80;;;;;;6274445;22;20006;-83
2021/06/05 10:22:29;;;;;;;5.85;1.92;;;24.60;81.50;;;;;;6272709;22;20090;-83
2021/06/05 10:25:18;;;;;;;3.92;1.10;;;24.60;83.70;;;;;;6274654;22;20031;-84
2021/06/05 10:27:47;;;;;;;0.55;0.55;;;24.60;83.40;;;;;;6274157;22;19999;-84
2021/06/05 10:30:31;;;;;;;2.85;1.58;;;24.60;82.50;;;;;;6274247;22;20019;-84
2021/06/05 10:32:59;;;;;;;2.70;1.45;;;24.70;80.40;;;;;;6273846;22;20063;-85
2021/06/05 10:35:39;;;;;;;2.30;1.60;;;24.80;84.90;;;;;;6274740;22;20110;-84
2021/06/05 10:38:30;;;;;;;3.22;0.60;;;24.80;83.30;;;;;;6274034;22;20033;-83
2021/06/05 10:40:56;;;;;;;4.25;2.35;;;24.60;85.60;;;;;;6257816;22;20469;-83
2021/06/05 10:43:22;;;;;;;12.18;2.72;;;24.30;83.50;;;;;;6272482;22;20007;-85
2021/06/05 10:45:49;;;;;;;3.83;2.27;;;24.20;86.00;;;;;;6272687;22;20458;-82
2021/06/05 10:48:27;;;;;;;4.53;2.15;;;24.30;89.10;;;;;;6273970;22;20000;-82
2021/06/05 10:51:28;;;;;;;2.47;2.00;;;24.30;87.60;;;;;;6272900;22;20465;-84
2021/06/05 10:53:57;;;;;;;4.50;1.65;;;24.00;90.70;;;;;;6268931;22;20015;-83
2021/06/05 10:56:35;;;;;;;5.72;1.95;;;24.10;90.90;;;;;;6272977;22;20430;-83
2021/06/05 10:59:01;;;;;;;5.00;1.77;;;24.20;91.00;;;;;;6274008;22;20004;-83
2021/06/05 11:01:29;;;;;;;0.75;0.75;;;24.10;90.10;;;;;;6271558;22;20031;-84
2021/06/05 11:04:00;;;;;;;3.80;2.00;;;24.10;91.00;;;;;;6271386;22;20335;-84
2021/06/05 11:06:29;;;;;;;1.83;1.42;;;24.10;90.00;;;;;;6273501;22;20003;-86
2021/06/05 11:09:01;;;;;;;6.35;1.20;;;24.00;90.60;;;;;;6273714;22;19999;-83
2021/06/05 11:11:39;;;;;;;2.45;1.77;;;24.10;90.20;;;;;;6272658;22;20050;-83
2021/06/05 11:14:10;;;;;;;;;;;24.10;91.00;;;;;;6272549;22;20012;-84
2021/06/05 11:16:58;;;;;;;5.82;2.17;;;24.10;90.90;;;;;;6272294;22;19899;-83
2021/06/05 11:19:47;;;;;;;10.98;2.22;;;24.10;90.90;;;;;;6274074;22;20007;-83
2021/06/05 11:22:21;;;;;;;2.25;1.85;;;24.10;90.80;;;;;;6273857;22;20007;-83
2021/06/05 11:25:08;;;;;;;2.03;1.70;;;24.20;93.00;;;;;;6272817;22;20007;-85
2021/06/05 11:27:36;;;;;;;3.15;1.88;;;24.40;94.00;;;;;;6273993;22;20434;-82
2021/06/05 11:30:05;;;;;;;10.73;2.70;;;24.60;92.70;;;;;;6272565;22;20023;-81
2021/06/05 11:32:52;;;;;;;0.80;0.80;;;24.60;91.20;;;;;;6273667;22;20016;-84
2021/06/05 11:35:45;;;;;;;4.32;1.70;;;24.60;92.90;;;;;;6273154;22;19999;-86
2021/06/05 11:38:17;;;;;;;1.50;1.02;;;25.00;92.80;;;;;;6274338;22;19995;-82
2021/06/05 11:40:55;;;;;;;1.92;1.55;;;25.00;91.20;;;;;;6274625;22;20419;-82
2021/06/05 11:43:27;;;;;;;2.08;1.77;;;25.00;91.80;;;;;;6274111;22;20683;-83
2021/06/05 11:45:59;;;;;;;1.58;0.55;;;24.90;91.70;;;;;;6274653;22;20323;-80
2021/06/05 11:48:41;;;;;;;3.60;2.25;;;24.90;93.00;;;;;;6273987;22;20000;-84
2021/06/05 11:51:26;;;;;;;0.98;0.95;;;25.30;92.80;;;;;;6274357;22;19999;-83
2021/06/05 11:53:59;;;;;;;5.28;1.58;;;25.30;91.50;;;;;;6272084;22;20016;-82
2021/06/05 11:56:44;;;;;;;2.38;2.17;;;25.10;91.60;;;;;;6274228;22;19999;-82
2021/06/05 11:59:33;;;;;;;0.80;0.73;;;25.20;91.50;;;;;;6274052;22;20057;-84
2021/06/05 12:02:07;;;;;;;10.88;4.10;;;25.10;91.60;;;;;;6274019;22;20427;-82
2021/06/05 12:04:47;;;;;;;0.70;0.70;;;26.00;90.20;;;;;;6274068;22;20008;-83
2021/06/05 12:07:26;;;;;;;9.75;1.55;;;29.30;80.30;;;;;;6275159;22;19992;-84
2021/06/05 12:09:56;;;;;;;2.75;1.27;;;31.50;70.20;;;;;;6274581;22;20087;-86
2021/06/05 12:12:24;;;;;;;1.15;0.90;;;32.50;64.50;;;;;;6273660;22;20008;-83
2021/06/05 12:14:59;;;;;;;0.63;0.60;;;33.20;61.10;;;;;;6273961;22;20060;-81
2021/06/05 12:17:34;;;;;;;0.30;0.30;;;34.10;61.60;;;;;;6273366;22;20003;-81
2021/06/05 12:20:21;;;;;;;1.55;1.45;;;36.30;57.00;;;;;;6273981;22;20004;-81
2021/06/05 12:23:09;;;;;;;0.70;0.70;;;36.70;52.40;;;;;;6272371;22;20011;-80
2021/06/05 12:25:40;;;;;;;1.50;1.40;;;36.60;52.50;;;;;;6273572;22;20004;-81
2021/06/05 12:28:24;;;;;;;0.85;0.85;;;35.90;50.50;;;;;;6275610;22;20074;-81
2021/06/05 12:30:51;;;;;;;1.25;1.13;;;37.10;49.80;;;;;;6276097;22;20011;-84
2021/06/05 12:33:32;;;;;;;0.60;0.60;;;37.80;47.30;;;;;;6275750;22;20034;-84
2021/06/05 12:36:01;;;;;;;0.40;0.40;;;39.70;44.00;;;;;;6276037;22;19996;-81
2021/06/05 12:38:49;;;;;;;1.80;0.47;;;41.00;41.20;;;;;;6275817;22;20084;-84
2021/06/05 12:41:28;;;;;;;0.60;0.60;;;42.10;40.10;;;;;;6275774;22;20366;-83
2021/06/05 12:43:54;;;;;;;0.65;0.65;;;43.20;38.40;;;;;;6273684;22;19999;-81
2021/06/05 12:46:33;;;;;;;0.95;0.40;;;43.00;37.50;;;;;;6276511;22;20006;-85
2021/06/05 12:49:06;;;;;;;1.38;0.40;;;41.90;39.30;;;;;;6275729;22;19996;-86
2021/06/05 12:51:36;;;;;;;2.08;1.67;;;40.90;40.60;;;;;;6275944;22;20007;-84
2021/06/05 12:54:09;;;;;;;2.28;1.80;;;39.90;40.70;;;;;;6275386;22;20328;-84
2021/06/05 12:56:44;;;;;;;4.00;2.28;;;40.20;40.70;;;;;;6276224;22;20030;-84
2021/06/05 12:59:28;;;;;;;0.60;0.60;;;39.20;41.40;;;;;;6275296;22;20014;-81
2021/06/05 13:01:54;;;;;;;1.25;1.13;;;39.60;41.40;;;;;;6275685;22;20006;-85
2021/06/05 13:04:29;;;;;;;0.98;0.75;;;40.50;40.60;;;;;;6274668;22;20010;-85
2021/06/05 13:07:03;;;;;;;1.65;1.27;;;39.50;41.00;;;;;;6274685;22;20000;-89
2021/06/05 13:09:39;;;;;;;1.38;1.20;;;39.70;40.80;;;;;;6275927;22;20492;-85